Time;durP1;ratioP1;P1;durP2;ratioP2;P2;SDS_P1;SDS_P2;PMS_P1;PMS_P2;Temp;Humidity;BMP_temperature;BMP_pressure;BME280_temperature;BME280_humidity;BME280_pressure;Samples;Min_cycle;Max_cycle;Signal;HPM_P1;HPM_P2
2023/06/12 00:00:36;;;;;;;7.13;6.15;;;;;;;;;;5015095;28;20142;-77
2023/06/12 00:03:05;;;;;;;7.53;6.45;;;;;;;;;;5015663;28;20054;-77
2023/06/12 00:05:32;;;;;;;8.00;6.50;;;;;;;;;;5015648;28;20042;-77
2023/06/12 00:08:00;;;;;;;8.68;7.38;;;;;;;;;;5015008;28;20057;-77
2023/06/12 00:10:27;;;;;;;8.07;6.53;;;;;;;;;;5014869;28;20559;-77
2023/06/12 00:12:53;;;;;;;8.30;6.45;;;;;;;;;;5015392;28;20517;-77
2023/06/12 00:15:20;;;;;;;7.28;6.40;;;;;;;;;;5016239;28;20045;-77
2023/06/12 00:17:48;;;;;;;8.55;6.25;;;;;;;;;;5015576;28;20160;-76
2023/06/12 00:20:16;;;;;;;7.40;6.32;;;;;;;;;;5014669;28;20133;-76
2023/06/12 00:22:43;;;;;;;9.43;6.60;;;;;;;;;;5015760;28;20081;-78
2023/06/12 00:25:10;;;;;;;8.38;6.70;;;;;;;;;;5016384;28;20046;-77
2023/06/12 00:27:36;;;;;;;8.77;6.80;;;;;;;;;;5016348;28;20105;-75
2023/06/12 00:30:03;;;;;;;8.02;7.22;;;;;;;;;;5019824;28;20118;-76
2023/06/12 00:32:30;;;;;;;8.10;6.97;;;;;;;;;;5020931;28;20076;-75
2023/06/12 00:34:56;;;;;;;8.35;6.68;;;;;;;;;;5020706;28;20050;-77
2023/06/12 00:37:25;;;;;;;7.90;7.10;;;;;;;;;;5015557;28;20049;-77
2023/06/12 00:39:52;;;;;;;6.88;6.00;;;;;;;;;;5015378;28;20049;-76
2023/06/12 00:42:18;;;;;;;7.60;6.50;;;;;;;;;;5015173;28;20104;-77
2023/06/12 00:44:45;;;;;;;10.40;7.15;;;;;;;;;;5015894;28;20065;-77
2023/06/12 00:47:12;;;;;;;8.15;7.03;;;;;;;;;;5015199;28;20651;-77
2023/06/12 00:49:39;;;;;;;9.68;7.20;;;;;;;;;;5014697;28;20125;-76
2023/06/12 00:52:08;;;;;;;8.60;7.40;;;;;;;;;;5014791;28;20144;-77
2023/06/12 00:54:36;;;;;;;8.88;6.68;;;;;;;;;;5012220;28;20053;-77
2023/06/12 00:57:03;;;;;;;8.90;6.90;;;;;;;;;;5014736;28;20050;-77
2023/06/12 00:59:29;;;;;;;8.68;6.90;;;;;;;;;;5014371;28;20062;-76
2023/06/12 01:01:56;;;;;;;8.13;7.30;;;;;;;;;;5014588;28;20121;-77
2023/06/12 01:04:23;;;;;;;8.27;7.00;;;;;;;;;;5014607;28;20054;-76
2023/06/12 01:06:55;;;;;;;10.05;7.32;;;;;;;;;;5015081;28;20046;-79
2023/06/12 01:09:33;;;;;;;9.50;7.20;;;;;;;;;;5013541;28;20050;-78
2023/06/12 01:12:02;;;;;;;7.93;6.78;;;;;;;;;;5014649;28;20042;-77
2023/06/12 01:14:28;;;;;;;9.02;7.30;;;;;;;;;;5014166;28;20392;-77
2023/06/12 01:16:58;;;;;;;8.05;6.78;;;;;;;;;;5014272;28;20077;-76
2023/06/12 01:19:25;;;;;;;9.25;6.93;;;;;;;;;;5015221;28;20114;-76
2023/06/12 01:21:57;;;;;;;9.65;7.43;;;;;;;;;;5014943;28;20140;-76
2023/06/12 01:24:49;;;;;;;9.05;7.28;;;;;;;;;;5013767;28;20046;-77
2023/06/12 01:27:28;;;;;;;8.45;7.18;;;;;;;;;;4995269;28;20078;-77
2023/06/12 01:30:18;;;;;;;7.95;6.28;;;;;;;;;;4994985;28;20046;-77
2023/06/12 01:32:50;;;;;;;7.63;6.40;;;;;;;;;;5015271;28;20056;-77
2023/06/12 01:35:22;;;;;;;8.95;6.75;;;;;;;;;;5015951;28;20077;-77
2023/06/12 01:37:52;;;;;;;10.27;7.63;;;;;;;;;;5015812;28;20041;-78
2023/06/12 01:40:20;;;;;;;8.07;6.93;;;;;;;;;;5015752;28;20050;-78
2023/06/12 01:42:47;;;;;;;8.68;7.55;;;;;;;;;;5015656;28;20413;-78
2023/06/12 01:45:14;;;;;;;9.30;7.22;;;;;;;;;;5015627;28;20497;-77
2023/06/12 01:47:40;;;;;;;9.07;7.20;;;;;;;;;;5016193;28;20077;-77
2023/06/12 01:50:10;;;;;;;10.50;7.80;;;;;;;;;;5015710;28;20054;-78
2023/06/12 01:52:38;;;;;;;8.82;7.15;;;;;;;;;;5016628;28;20054;-77
2023/06/12 01:55:05;;;;;;;8.98;7.22;;;;;;;;;;5017468;28;20409;-77
2023/06/12 01:57:32;;;;;;;8.68;7.05;;;;;;;;;;5016793;28;20085;-77
2023/06/12 02:00:00;;;;;;;9.43;6.80;;;;;;;;;;5017217;28;20052;-77
2023/06/12 02:02:27;;;;;;;8.13;7.13;;;;;;;;;;5016582;28;20072;-77
2023/06/12 02:04:53;;;;;;;8.40;6.97;;;;;;;;;;5017352;28;20048;-77
2023/06/12 02:07:21;;;;;;;9.85;7.63;;;;;;;;;;5016867;28;20048;-77
2023/06/12 02:09:48;;;;;;;8.95;7.10;;;;;;;;;;5017027;28;20042;-77
2023/06/12 02:12:15;;;;;;;9.18;7.95;;;;;;;;;;5017454;28;20050;-77
2023/06/12 02:14:42;;;;;;;10.70;8.38;;;;;;;;;;5017672;28;20052;-78
2023/06/12 02:17:08;;;;;;;9.15;7.97;;;;;;;;;;5017115;28;20104;-77
2023/06/12 02:19:36;;;;;;;8.82;7.72;;;;;;;;;;5015416;28;20042;-77
2023/06/12 02:22:03;;;;;;;9.95;8.30;;;;;;;;;;5016955;28;20065;-77
2023/06/12 02:24:33;;;;;;;9.38;8.13;;;;;;;;;;5016528;28;20505;-77
2023/06/12 02:27:00;;;;;;;9.30;8.05;;;;;;;;;;5018755;28;20077;-78
2023/06/12 02:29:26;;;;;;;10.13;8.07;;;;;;;;;;5016929;28;20073;-78
2023/06/12 02:31:53;;;;;;;9.30;7.50;;;;;;;;;;5017008;28;20129;-78
2023/06/12 02:34:20;;;;;;;8.73;7.63;;;;;;;;;;5016774;28;20484;-77
2023/06/12 02:36:47;;;;;;;9.40;7.97;;;;;;;;;;5013819;28;20092;-78
2023/06/12 02:39:14;;;;;;;9.20;7.97;;;;;;;;;;5012248;28;20050;-78
2023/06/12 02:41:45;;;;;;;9.38;8.38;;;;;;;;;;5013303;28;20064;-77
2023/06/12 02:44:11;;;;;;;10.32;7.93;;;;;;;;;;5012832;28;20054;-77
2023/06/12 02:46:51;;;;;;;9.85;8.25;;;;;;;;;;5012778;28;20465;-78
2023/06/12 02:49:17;;;;;;;10.20;7.53;;;;;;;;;;5011641;28;20112;-77
2023/06/12 02:51:44;;;;;;;9.57;7.93;;;;;;;;;;5012397;28;20053;-78
2023/06/12 02:54:10;;;;;;;11.38;8.13;;;;;;;;;;5012804;28;20177;-77
2023/06/12 02:56:37;;;;;;;9.57;7.93;;;;;;;;;;5012798;28;20046;-78
2023/06/12 02:59:05;;;;;;;9.70;8.20;;;;;;;;;;5012006;28;20053;-77
2023/06/12 03:01:32;;;;;;;9.73;7.63;;;;;;;;;;5010434;28;20050;-76
2023/06/12 03:03:59;;;;;;;8.73;7.68;;;;;;;;;;5011555;28;20074;-77
2023/06/12 03:06:28;;;;;;;9.38;8.38;;;;;;;;;;5012573;28;20054;-78
2023/06/12 03:08:55;;;;;;;9.35;8.32;;;;;;;;;;5011207;28;20037;-77
2023/06/12 03:11:22;;;;;;;10.35;8.52;;;;;;;;;;5012222;28;20053;-77
2023/06/12 03:13:49;;;;;;;10.38;8.35;;;;;;;;;;5023139;28;20042;-77
2023/06/12 03:16:20;;;;;;;10.15;8.55;;;;;;;;;;5012946;28;20393;-78
2023/06/12 03:18:47;;;;;;;10.98;7.88;;;;;;;;;;5011788;28;20046;-77
2023/06/12 03:21:15;;;;;;;11.02;8.30;;;;;;;;;;5004157;28;20171;-77
2023/06/12 03:23:42;;;;;;;9.10;7.38;;;;;;;;;;5011865;28;20037;-77
2023/06/12 03:26:09;;;;;;;10.25;8.05;;;;;;;;;;5012388;28;20088;-77
2023/06/12 03:28:36;;;;;;;9.68;7.68;;;;;;;;;;5014865;28;20041;-77
2023/06/12 03:31:02;;;;;;;9.90;8.40;;;;;;;;;;5020501;28;20077;-76
2023/06/12 03:33:30;;;;;;;9.90;8.05;;;;;;;;;;5012917;28;20057;-78
2023/06/12 03:35:57;;;;;;;11.10;7.93;;;;;;;;;;5011950;28;20133;-77
2023/06/12 03:38:24;;;;;;;9.93;7.82;;;;;;;;;;5011133;28;20045;-77
2023/06/12 03:40:50;;;;;;;8.80;7.85;;;;;;;;;;5011254;28;20077;-78
2023/06/12 03:43:17;;;;;;;8.70;7.60;;;;;;;;;;5011443;28;20150;-78
2023/06/12 03:45:43;;;;;;;9.15;8.07;;;;;;;;;;5011783;28;20129;-78
2023/06/12 03:48:10;;;;;;;10.82;8.45;;;;;;;;;;5011312;28;20053;-78
2023/06/12 03:50:39;;;;;;;10.63;8.52;;;;;;;;;;5010446;28;20045;-78
2023/06/12 03:53:05;;;;;;;10.35;8.32;;;;;;;;;;5011080;28;20046;-78
2023/06/12 03:55:32;;;;;;;9.73;7.93;;;;;;;;;;5011187;28;20668;-77
2023/06/12 03:58:00;;;;;;;9.68;8.50;;;;;;;;;;5011358;28;20049;-78
2023/06/12 04:00:27;;;;;;;10.43;7.65;;;;;;;;;;5010951;28;20081;-78
2023/06/12 04:02:54;;;;;;;10.35;8.52;;;;;;;;;;5011206;28;20052;-78
2023/06/12 04:05:21;;;;;;;10.05;7.78;;;;;;;;;;5011401;28;20077;-77
2023/06/12 04:07:49;;;;;;;10.35;8.27;;;;;;;;;;5011919;28;20435;-78
2023/06/12 04:10:16;;;;;;;10.43;7.97;;;;;;;;;;5011070;28;20041;-78
2023/06/12 04:12:42;;;;;;;9.15;7.47;;;;;;;;;;5010891;28;20049;-77
2023/06/12 04:15:10;;;;;;;13.88;8.35;;;;;;;;;;5011497;28;20553;-77
2023/06/12 04:17:37;;;;;;;10.25;8.02;;;;;;;;;;5011297;28;20046;-78
2023/06/12 04:20:06;;;;;;;11.10;8.68;;;;;;;;;;5011144;28;20049;-78
2023/06/12 04:22:32;;;;;;;11.10;8.45;;;;;;;;;;5011202;28;20054;-78
2023/06/12 04:25:01;;;;;;;10.02;8.48;;;;;;;;;;5011494;28;20159;-78
2023/06/12 04:27:29;;;;;;;11.25;8.95;;;;;;;;;;5011634;28;20057;-78
2023/06/12 04:29:57;;;;;;;9.98;8.35;;;;;;;;;;5010655;28;20436;-78
2023/06/12 04:32:24;;;;;;;10.25;7.82;;;;;;;;;;5010539;28;20089;-78
2023/06/12 04:34:50;;;;;;;11.38;9.27;;;;;;;;;;5011707;28;20046;-78
2023/06/12 04:37:18;;;;;;;11.68;9.45;;;;;;;;;;5011259;28;20053;-77
2023/06/12 04:39:46;;;;;;;12.52;9.27;;;;;;;;;;5010350;28;20500;-78
2023/06/12 04:42:16;;;;;;;11.13;8.70;;;;;;;;;;5010834;28;20042;-78
2023/06/12 04:44:43;;;;;;;;;;;;;;;;;;5014663;28;20128;-77
2023/06/12 04:47:10;;;;;;;10.05;8.25;;;;;;;;;;5014770;28;19921;-77
2023/06/12 04:49:40;;;;;;;10.45;8.32;;;;;;;;;;5013714;28;20066;-77
2023/06/12 04:52:08;;;;;;;11.48;8.98;;;;;;;;;;5013984;28;20148;-77
2023/06/12 04:54:35;;;;;;;11.98;8.70;;;;;;;;;;5015874;28;20050;-77
2023/06/12 04:57:03;;;;;;;11.18;9.20;;;;;;;;;;5015674;28;20394;-77
2023/06/12 04:59:37;;;;;;;14.00;10.73;;;;;;;;;;5014752;28;20061;-76
2023/06/12 05:02:05;;;;;;;12.85;9.38;;;;;;;;;;5014090;28;20080;-76
2023/06/12 05:04:32;;;;;;;12.98;9.73;;;;;;;;;;5014163;28;20497;-76
2023/06/12 05:06:59;;;;;;;11.70;9.13;;;;;;;;;;5014961;28;20064;-76
2023/06/12 05:09:26;;;;;;;10.48;9.38;;;;;;;;;;5014190;28;20050;-76
2023/06/12 05:11:53;;;;;;;13.15;10.15;;;;;;;;;;5014953;28;20132;-76
2023/06/12 05:14:19;;;;;;;12.90;9.18;;;;;;;;;;5014728;28;20454;-77
2023/06/12 05:16:48;;;;;;;13.80;9.75;;;;;;;;;;5025854;22;20092;-78
2023/06/12 05:19:15;;;;;;;12.27;9.75;;;;;;;;;;5026922;28;20057;-78
2023/06/12 05:21:43;;;;;;;11.18;9.75;;;;;;;;;;5027730;28;20054;-79
2023/06/12 05:24:09;;;;;;;12.35;10.13;;;;;;;;;;5026946;28;20713;-79
2023/06/12 05:26:37;;;;;;;13.00;9.38;;;;;;;;;;5025240;28;20432;-79
2023/06/12 05:29:03;;;;;;;11.43;9.65;;;;;;;;;;5024705;28;20049;-80
2023/06/12 05:31:30;;;;;;;10.60;9.50;;;;;;;;;;5024884;28;20065;-79
2023/06/12 05:33:58;;;;;;;12.32;9.15;;;;;;;;;;5024383;28;20083;-79
2023/06/12 05:36:25;;;;;;;13.73;9.57;;;;;;;;;;5025837;28;20076;-81
2023/06/12 05:38:51;;;;;;;11.45;10.13;;;;;;;;;;5025168;28;20128;-80
2023/06/12 05:41:18;;;;;;;13.50;9.73;;;;;;;;;;5023952;28;20214;-79
2023/06/12 05:43:45;;;;;;;10.70;9.02;;;;;;;;;;5022085;28;20046;-80
2023/06/12 05:46:13;;;;;;;12.40;9.93;;;;;;;;;;5023099;28;20049;-79
2023/06/12 05:48:39;;;;;;;10.20;9.05;;;;;;;;;;5023760;28;20600;-82
2023/06/12 05:51:07;;;;;;;11.80;9.15;;;;;;;;;;5024237;28;20418;-84
2023/06/12 05:53:34;;;;;;;10.57;9.48;;;;;;;;;;5027373;28;20149;-83
2023/06/12 05:56:01;;;;;;;11.63;9.27;;;;;;;;;;5024435;28;20497;-79
2023/06/12 05:58:28;;;;;;;11.80;9.15;;;;;;;;;;5026242;28;20046;-78
2023/06/12 06:00:55;;;;;;;11.55;9.57;;;;;;;;;;5024506;28;20048;-79
2023/06/12 06:03:23;;;;;;;9.98;8.63;;;;;;;;;;5023537;28;20531;-79
2023/06/12 06:05:50;;;;;;;12.20;9.80;;;;;;;;;;5022706;28;20046;-78
2023/06/12 06:08:18;;;;;;;12.55;9.95;;;;;;;;;;5023412;28;20623;-80
2023/06/12 06:10:45;;;;;;;12.23;8.95;;;;;;;;;;5022201;28;20499;-78
2023/06/12 06:13:12;;;;;;;9.90;8.82;;;;;;;;;;5023721;28;20057;-78
2023/06/12 06:15:39;;;;;;;11.25;9.10;;;;;;;;;;5023063;28;20126;-78
2023/06/12 06:18:06;;;;;;;12.57;9.25;;;;;;;;;;5023262;28;20128;-79
2023/06/12 06:20:33;;;;;;;11.25;9.70;;;;;;;;;;5021952;28;20093;-80
2023/06/12 06:23:00;;;;;;;10.88;8.95;;;;;;;;;;5021953;28;20148;-80
2023/06/12 06:25:29;;;;;;;10.48;9.38;;;;;;;;;;5025486;28;20489;-78
2023/06/12 06:27:56;;;;;;;11.60;9.40;;;;;;;;;;5020900;28;20041;-78
2023/06/12 06:30:22;;;;;;;10.82;9.45;;;;;;;;;;5024567;28;20100;-79
2023/06/12 06:32:49;;;;;;;11.10;9.57;;;;;;;;;;5021403;28;20045;-80
2023/06/12 06:35:16;;;;;;;9.93;8.70;;;;;;;;;;5020595;28;20045;-77
2023/06/12 06:37:43;;;;;;;12.25;9.65;;;;;;;;;;5025203;28;20475;-78
2023/06/12 06:40:14;;;;;;;10.98;8.73;;;;;;;;;;5022561;28;20077;-78
2023/06/12 06:42:42;;;;;;;10.32;8.43;;;;;;;;;;5028732;28;20098;-80
2023/06/12 06:45:09;;;;;;;10.95;9.38;;;;;;;;;;5022115;28;20058;-79
2023/06/12 06:47:36;;;;;;;9.70;8.45;;;;;;;;;;5024889;28;20060;-77
2023/06/12 06:50:02;;;;;;;12.50;8.90;;;;;;;;;;5024216;28;20050;-78
2023/06/12 06:52:29;;;;;;;9.05;7.68;;;;;;;;;;5020266;28;20052;-78
2023/06/12 06:54:56;;;;;;;9.20;7.95;;;;;;;;;;5023954;28;20053;-78
2023/06/12 06:57:26;;;;;;;11.02;8.68;;;;;;;;;;5023420;28;20057;-79
2023/06/12 06:59:55;;;;;;;10.70;8.63;;;;;;;;;;5023911;28;20049;-79
2023/06/12 07:02:23;;;;;;;11.60;8.82;;;;;;;;;;5020010;28;20046;-79
2023/06/12 07:04:50;;;;;;;12.07;8.25;;;;;;;;;;5023658;28;20074;-78
2023/06/12 07:07:17;;;;;;;12.50;9.48;;;;;;;;;;5020773;28;20045;-78
2023/06/12 07:09:43;;;;;;;10.38;8.23;;;;;;;;;;5021221;28;20049;-78
2023/06/12 07:12:11;;;;;;;10.30;8.95;;;;;;;;;;5026938;28;20050;-80
2023/06/12 07:14:37;;;;;;;9.90;8.00;;;;;;;;;;5013934;28;20045;-78
2023/06/12 07:17:06;;;;;;;9.05;7.88;;;;;;;;;;5019007;28;20041;-79
2023/06/12 07:19:33;;;;;;;10.63;8.48;;;;;;;;;;5019715;28;20050;-79
2023/06/12 07:22:00;;;;;;;12.27;8.10;;;;;;;;;;5016468;28;20042;-78
2023/06/12 07:24:27;;;;;;;10.25;8.00;;;;;;;;;;5012342;28;20046;-78
2023/06/12 07:26:54;;;;;;;8.82;7.45;;;;;;;;;;5013775;28;20124;-77
2023/06/12 07:29:22;;;;;;;9.70;8.10;;;;;;;;;;5011799;28;20050;-78
2023/06/12 07:31:49;;;;;;;10.75;8.07;;;;;;;;;;5013446;28;20571;-78
2023/06/12 07:34:17;;;;;;;10.18;8.60;;;;;;;;;;5029066;28;20049;-81
2023/06/12 07:36:44;;;;;;;9.93;8.18;;;;;;;;;;5019415;28;20064;-78
2023/06/12 07:39:11;;;;;;;8.65;7.38;;;;;;;;;;5012312;28;20214;-77
2023/06/12 07:41:39;;;;;;;10.27;8.07;;;;;;;;;;5014048;28;20077;-79
2023/06/12 07:44:05;;;;;;;10.15;7.60;;;;;;;;;;5013285;28;20046;-81
2023/06/12 07:46:32;;;;;;;10.52;7.15;;;;;;;;;;5012889;28;20136;-79
2023/06/12 07:48:59;;;;;;;8.15;6.78;;;;;;;;;;5022594;28;20681;-77
2023/06/12 07:51:27;;;;;;;9.65;7.25;;;;;;;;;;5020817;28;20479;-81
2023/06/12 07:53:53;;;;;;;8.70;7.38;;;;;;;;;;5022642;28;20073;-81
2023/06/12 07:56:20;;;;;;;10.20;8.02;;;;;;;;;;5031592;28;20050;-79
2023/06/12 07:58:47;;;;;;;11.32;7.53;;;;;;;;;;5032175;28;20050;-79
2023/06/12 08:01:16;;;;;;;10.93;8.38;;;;;;;;;;5029310;28;20042;-80
2023/06/12 08:03:42;;;;;;;10.70;8.25;;;;;;;;;;5026596;28;20081;-78
2023/06/12 08:06:11;;;;;;;11.35;8.23;;;;;;;;;;5010680;28;20188;-78
2023/06/12 08:08:43;;;;;;;9.90;7.97;;;;;;;;;;5010045;28;20042;-78
2023/06/12 08:11:10;;;;;;;9.23;7.85;;;;;;;;;;5011791;28;20575;-80
2023/06/12 08:13:37;;;;;;;11.02;7.72;;;;;;;;;;5030477;28;20061;-78
2023/06/12 08:16:04;;;;;;;8.70;7.72;;;;;;;;;;5018969;28;20082;-80
2023/06/12 08:18:31;;;;;;;10.77;7.82;;;;;;;;;;5012733;28;20185;-78
2023/06/12 08:20:58;;;;;;;10.20;8.27;;;;;;;;;;5015092;28;20073;-79
2023/06/12 08:23:25;;;;;;;9.80;7.53;;;;;;;;;;5016426;28;20077;-80
2023/06/12 08:25:55;;;;;;;9.30;7.07;;;;;;;;;;5016889;28;20127;-77
2023/06/12 08:28:22;;;;;;;10.30;7.38;;;;;;;;;;5015491;28;20072;-78
2023/06/12 08:30:50;;;;;;;8.90;7.20;;;;;;;;;;5016075;28;20100;-78
2023/06/12 08:33:18;;;;;;;9.35;7.30;;;;;;;;;;5016097;28;20100;-80
2023/06/12 08:35:46;;;;;;;10.18;6.88;;;;;;;;;;5015919;28;20497;-78
2023/06/12 08:38:12;;;;;;;8.85;7.18;;;;;;;;;;5014062;28;20049;-78
2023/06/12 08:40:39;;;;;;;10.38;7.70;;;;;;;;;;5030342;28;20076;-79
2023/06/12 08:43:07;;;;;;;7.43;6.57;;;;;;;;;;5034815;28;20046;-79
2023/06/12 08:45:38;;;;;;;7.75;6.95;;;;;;;;;;5010195;28;20041;-78
2023/06/12 08:48:07;;;;;;;10.80;7.03;;;;;;;;;;5016945;28;20077;-76
2023/06/12 08:50:34;;;;;;;8.52;6.88;;;;;;;;;;5014203;28;20141;-77
2023/06/12 08:53:02;;;;;;;8.52;6.72;;;;;;;;;;5014473;28;20077;-76
2023/06/12 08:55:32;;;;;;;7.28;6.30;;;;;;;;;;5014097;28;20096;-78
2023/06/12 08:58:00;;;;;;;8.87;6.43;;;;;;;;;;5014500;28;20442;-79
2023/06/12 09:00:28;;;;;;;9.65;7.07;;;;;;;;;;5013936;28;20067;-79
2023/06/12 09:02:57;;;;;;;6.95;6.25;;;;;;;;;;5024726;28;20045;-79
2023/06/12 09:05:29;;;;;;;9.18;6.93;;;;;;;;;;5013049;28;20056;-79
2023/06/12 09:08:00;;;;;;;8.52;6.13;;;;;;;;;;4993780;28;20042;-77
2023/06/12 09:10:27;;;;;;;8.90;6.50;;;;;;;;;;5027586;28;20143;-78
2023/06/12 09:12:54;;;;;;;7.32;6.28;;;;;;;;;;5013027;28;20137;-76
2023/06/12 09:15:23;;;;;;;8.43;6.72;;;;;;;;;;5013832;28;20080;-79
2023/06/12 09:17:53;;;;;;;7.32;6.03;;;;;;;;;;5025076;28;20133;-76
2023/06/12 09:20:24;;;;;;;8.57;6.07;;;;;;;;;;5035951;28;20049;-79
2023/06/12 09:22:52;;;;;;;9.05;6.53;;;;;;;;;;5017050;28;20619;-79
2023/06/12 09:25:19;;;;;;;9.98;6.50;;;;;;;;;;5014053;28;20045;-77
2023/06/12 09:27:46;;;;;;;8.60;6.72;;;;;;;;;;5012208;28;20514;-77
2023/06/12 09:30:13;;;;;;;6.72;5.70;;;;;;;;;;5013707;28;20482;-76
2023/06/12 09:32:42;;;;;;;10.82;6.40;;;;;;;;;;5012238;28;20050;-76
2023/06/12 09:35:13;;;;;;;8.30;6.10;;;;;;;;;;5011199;28;20052;-76
2023/06/12 09:37:41;;;;;;;;;;;;;;;;;;5012178;28;20136;-75
2023/06/12 09:40:10;;;;;;;7.43;5.35;;;;;;;;;;5011580;28;19921;-77
2023/06/12 09:42:37;;;;;;;10.07;6.00;;;;;;;;;;5011804;28;20052;-75
2023/06/12 09:45:14;;;;;;;7.80;5.80;;;;;;;;;;5012215;28;20065;-76
2023/06/12 09:47:42;;;;;;;7.63;5.80;;;;;;;;;;5011624;28;20069;-77
2023/06/12 09:50:12;;;;;;;8.38;6.32;;;;;;;;;;5011898;28;20046;-77
2023/06/12 09:52:40;;;;;;;;;;;;;;;;;;5012788;28;20049;-78
2023/06/12 09:55:09;;;;;;;7.72;5.65;;;;;;;;;;5012305;28;19922;-78
2023/06/12 09:57:37;;;;;;;6.97;5.80;;;;;;;;;;5013282;28;20045;-77
2023/06/12 10:00:07;;;;;;;7.10;5.30;;;;;;;;;;5014688;28;20046;-77
2023/06/12 10:02:35;;;;;;;7.22;5.90;;;;;;;;;;5011682;28;20093;-78
2023/06/12 10:05:06;;;;;;;6.50;5.30;;;;;;;;;;5012039;28;20129;-78
2023/06/12 10:07:39;;;;;;;6.85;5.65;;;;;;;;;;4999009;28;20057;-78
2023/06/12 10:10:08;;;;;;;8.55;6.10;;;;;;;;;;4991891;28;20054;-78
2023/06/12 10:12:35;;;;;;;8.30;6.38;;;;;;;;;;4992787;28;20054;-78
2023/06/12 10:15:04;;;;;;;8.23;6.07;;;;;;;;;;4992757;28;20042;-78
2023/06/12 10:17:31;;;;;;;8.27;5.72;;;;;;;;;;4991504;28;20050;-77
2023/06/12 10:19:58;;;;;;;7.53;5.70;;;;;;;;;;4991292;28;20110;-78
2023/06/12 10:22:25;;;;;;;10.38;6.35;;;;;;;;;;5009500;28;20080;-78
2023/06/12 10:24:53;;;;;;;6.88;5.93;;;;;;;;;;5011145;28;20045;-78
2023/06/12 10:27:20;;;;;;;8.10;5.38;;;;;;;;;;5010965;28;20056;-78
2023/06/12 10:29:55;;;;;;;6.53;5.28;;;;;;;;;;5011054;28;20077;-78
2023/06/12 10:32:22;;;;;;;7.72;5.50;;;;;;;;;;5009597;28;20164;-78
2023/06/12 10:34:53;;;;;;;7.53;6.63;;;;;;;;;;5011007;28;20077;-78
2023/06/12 10:37:24;;;;;;;7.05;5.45;;;;;;;;;;5009594;28;20711;-77
2023/06/12 10:40:07;;;;;;;8.65;5.80;;;;;;;;;;5010540;28;20042;-76
2023/06/12 10:42:45;;;;;;;7.03;5.28;;;;;;;;;;5010718;28;20145;-77
2023/06/12 10:45:16;;;;;;;8.10;5.70;;;;;;;;;;5011507;28;20426;-78
2023/06/12 10:47:43;;;;;;;7.95;5.43;;;;;;;;;;5012156;28;20045;-77
2023/06/12 10:50:10;;;;;;;7.80;5.28;;;;;;;;;;5014607;28;20140;-78
2023/06/12 10:52:36;;;;;;;7.28;5.55;;;;;;;;;;5012461;28;20164;-78
2023/06/12 10:55:31;;;;;;;6.88;5.18;;;;;;;;;;5011407;28;20118;-78
2023/06/12 10:57:59;;;;;;;7.22;5.10;;;;;;;;;;5013196;28;20073;-78
2023/06/12 11:00:31;;;;;;;7.72;5.75;;;;;;;;;;5012825;28;20046;-77
2023/06/12 11:02:59;;;;;;;6.78;5.43;;;;;;;;;;5020270;28;20751;-76
2023/06/12 11:05:27;;;;;;;6.13;4.93;;;;;;;;;;5026894;28;20041;-77
2023/06/12 11:08:00;;;;;;;8.70;5.30;;;;;;;;;;5024736;28;20041;-80
2023/06/12 11:10:29;;;;;;;6.75;5.28;;;;;;;;;;5035518;28;20504;-80
2023/06/12 11:12:56;;;;;;;9.07;5.70;;;;;;;;;;5033534;28;20057;-78
2023/06/12 11:15:23;;;;;;;9.85;6.30;;;;;;;;;;5013720;28;20054;-79
2023/06/12 11:17:50;;;;;;;8.68;4.93;;;;;;;;;;5011856;28;20138;-77
2023/06/12 11:20:19;;;;;;;187.98;68.78;;;;;;;;;;5026958;28;20113;-77
2023/06/12 11:22:46;;;;;;;32.67;15.13;;;;;;;;;;5016519;28;20050;-77
2023/06/12 11:25:14;;;;;;;50.90;24.77;;;;;;;;;;5014067;28;20042;-80
2023/06/12 11:27:42;;;;;;;30.75;14.88;;;;;;;;;;5013712;28;20042;-82
2023/06/12 11:30:12;;;;;;;39.15;14.98;;;;;;;;;;5013532;28;20049;-78
2023/06/12 11:32:40;;;;;;;32.28;14.77;;;;;;;;;;5013296;28;20054;-79
2023/06/12 11:35:09;;;;;;;39.95;17.67;;;;;;;;;;5012135;28;20074;-79
2023/06/12 11:37:37;;;;;;;31.13;13.77;;;;;;;;;;5011727;28;20053;-78
2023/06/12 11:40:08;;;;;;;23.42;11.77;;;;;;;;;;5010950;28;20479;-78
2023/06/12 11:42:36;;;;;;;21.40;10.82;;;;;;;;;;5011616;28;20061;-79
2023/06/12 11:45:08;;;;;;;17.52;8.93;;;;;;;;;;5015761;28;20049;-79
2023/06/12 11:47:36;;;;;;;24.00;11.43;;;;;;;;;;5015312;28;20052;-83
2023/06/12 11:50:05;;;;;;;25.05;12.00;;;;;;;;;;5020815;28;20053;-82
2023/06/12 11:52:32;;;;;;;14.83;8.23;;;;;;;;;;5022307;28;20044;-81
2023/06/12 11:55:01;;;;;;;15.60;8.27;;;;;;;;;;5026265;28;20081;-79
2023/06/12 11:57:28;;;;;;;13.88;7.47;;;;;;;;;;5020315;28;20180;-79
2023/06/12 11:59:57;;;;;;;12.02;6.68;;;;;;;;;;5019105;28;20072;-79
2023/06/12 12:02:30;;;;;;;11.43;6.75;;;;;;;;;;5019329;28;20069;-79
2023/06/12 12:04:59;;;;;;;13.32;7.07;;;;;;;;;;5020401;28;20045;-80
2023/06/12 12:07:27;;;;;;;14.57;8.30;;;;;;;;;;5020518;28;20053;-78
2023/06/12 12:10:08;;;;;;;11.88;7.60;;;;;;;;;;5015176;28;20042;-79
2023/06/12 12:12:45;;;;;;;11.13;6.65;;;;;;;;;;5014130;28;20553;-78
2023/06/12 12:15:14;;;;;;;10.45;6.50;;;;;;;;;;5016088;28;20104;-81
2023/06/12 12:17:43;;;;;;;9.55;6.13;;;;;;;;;;5015171;28;20096;-77
2023/06/12 12:20:15;;;;;;;7.97;5.63;;;;;;;;;;5014940;28;20050;-79
2023/06/12 12:22:44;;;;;;;10.00;5.78;;;;;;;;;;5017709;28;20124;-80
2023/06/12 12:25:16;;;;;;;10.63;6.78;;;;;;;;;;5019111;28;20511;-79
2023/06/12 12:27:45;;;;;;;11.02;6.85;;;;;;;;;;5024568;28;20053;-79
2023/06/12 12:30:14;;;;;;;9.93;6.00;;;;;;;;;;5020736;28;20046;-78
2023/06/12 12:32:43;;;;;;;8.00;5.22;;;;;;;;;;5015356;28;20756;-79
2023/06/12 12:35:10;;;;;;;10.30;6.00;;;;;;;;;;5022239;28;20065;-79
2023/06/12 12:37:37;;;;;;;7.25;5.60;;;;;;;;;;5022419;28;20045;-80
2023/06/12 12:40:09;;;;;;;8.75;5.53;;;;;;;;;;5015149;28;20049;-82
2023/06/12 12:42:36;;;;;;;10.23;5.55;;;;;;;;;;5016058;28;20100;-79
2023/06/12 12:45:04;;;;;;;10.65;5.13;;;;;;;;;;5014649;28;20511;-80
2023/06/12 12:47:30;;;;;;;8.18;5.15;;;;;;;;;;5018565;28;20045;-80
2023/06/12 12:49:59;;;;;;;6.93;4.72;;;;;;;;;;5019896;28;20042;-81
2023/06/12 12:52:26;;;;;;;7.90;5.47;;;;;;;;;;5024063;28;20050;-80
2023/06/12 12:54:53;;;;;;;6.47;4.30;;;;;;;;;;5037288;28;20041;-79
2023/06/12 12:57:19;;;;;;;6.60;4.70;;;;;;;;;;5034207;28;20105;-80
2023/06/12 12:59:46;;;;;;;8.23;5.00;;;;;;;;;;5016668;28;20144;-80
2023/06/12 13:02:13;;;;;;;6.82;4.70;;;;;;;;;;5019116;28;20109;-80
2023/06/12 13:04:39;;;;;;;8.50;4.97;;;;;;;;;;5015657;28;20461;-80
2023/06/12 13:07:10;;;;;;;7.60;5.05;;;;;;;;;;5014446;28;20119;-80
2023/06/12 13:09:36;;;;;;;7.10;4.72;;;;;;;;;;5014725;28;20057;-80
2023/06/12 13:12:03;;;;;;;7.30;4.65;;;;;;;;;;5017259;28;20042;-80
2023/06/12 13:14:36;;;;;;;7.75;5.15;;;;;;;;;;5024473;28;20052;-79
2023/06/12 13:17:03;;;;;;;6.90;4.25;;;;;;;;;;5036323;28;20034;-82
2023/06/12 13:19:29;;;;;;;7.47;4.78;;;;;;;;;;5037127;28;20069;-78
2023/06/12 13:21:56;;;;;;;5.75;4.00;;;;;;;;;;5016417;28;20042;-80
2023/06/12 13:24:24;;;;;;;5.90;4.40;;;;;;;;;;5027535;28;20045;-79
2023/06/12 13:26:51;;;;;;;6.40;4.10;;;;;;;;;;5016888;28;20045;-79
2023/06/12 13:29:19;;;;;;;7.03;4.80;;;;;;;;;;5016759;28;20129;-79
2023/06/12 13:31:45;;;;;;;6.57;5.05;;;;;;;;;;5018711;28;20049;-78
2023/06/12 13:34:12;;;;;;;6.30;4.32;;;;;;;;;;5019835;28;20046;-80
2023/06/12 13:36:39;;;;;;;7.85;4.45;;;;;;;;;;5020957;28;20073;-80
2023/06/12 13:39:05;;;;;;;5.95;4.20;;;;;;;;;;5020030;28;20493;-80
2023/06/12 13:41:33;;;;;;;7.35;4.60;;;;;;;;;;5020039;28;20130;-79
2023/06/12 13:44:00;;;;;;;6.05;4.28;;;;;;;;;;5027237;28;20038;-81
2023/06/12 13:46:27;;;;;;;5.80;4.22;;;;;;;;;;5025293;28;20049;-77
2023/06/12 13:48:54;;;;;;;5.07;4.07;;;;;;;;;;5014572;28;20072;-78
2023/06/12 13:51:20;;;;;;;5.93;4.25;;;;;;;;;;5015365;28;20645;-77
2023/06/12 13:53:47;;;;;;;7.80;4.30;;;;;;;;;;5020212;28;20083;-80
2023/06/12 13:56:15;;;;;;;6.88;3.83;;;;;;;;;;5036218;28;20092;-85
2023/06/12 13:58:43;;;;;;;5.43;3.90;;;;;;;;;;5018428;28;20575;-80
2023/06/12 14:01:10;;;;;;;5.72;4.07;;;;;;;;;;5016220;28;20056;-81
2023/06/12 14:03:37;;;;;;;7.35;4.50;;;;;;;;;;5015186;28;20065;-80
2023/06/12 14:06:03;;;;;;;6.00;3.88;;;;;;;;;;5021535;28;20076;-78
2023/06/12 14:08:31;;;;;;;5.38;3.90;;;;;;;;;;5019067;28;20060;-78
2023/06/12 14:10:59;;;;;;;6.75;3.85;;;;;;;;;;5015296;28;20105;-80
2023/06/12 14:13:26;;;;;;;5.63;4.05;;;;;;;;;;5014619;28;20053;-81
2023/06/12 14:15:54;;;;;;;5.75;3.72;;;;;;;;;;5013983;28;20073;-81
2023/06/12 14:18:20;;;;;;;6.38;3.90;;;;;;;;;;5014708;28;20136;-76
2023/06/12 14:20:47;;;;;;;6.07;4.03;;;;;;;;;;5016152;28;20652;-81
2023/06/12 14:23:13;;;;;;;5.78;3.80;;;;;;;;;;5023991;28;20472;-83
2023/06/12 14:25:40;;;;;;;5.25;4.00;;;;;;;;;;5016784;28;20064;-82
2023/06/12 14:28:07;;;;;;;5.53;3.83;;;;;;;;;;5026786;28;20038;-80
2023/06/12 14:30:34;;;;;;;5.35;3.63;;;;;;;;;;5041169;28;20052;-79
2023/06/12 14:33:02;;;;;;;6.43;3.78;;;;;;;;;;5024074;28;20046;-80
2023/06/12 14:35:28;;;;;;;6.03;4.10;;;;;;;;;;5021389;28;20065;-79
2023/06/12 14:37:55;;;;;;;6.68;4.63;;;;;;;;;;5021181;28;20052;-79
2023/06/12 14:40:23;;;;;;;5.32;4.63;;;;;;;;;;5020715;28;20046;-78
2023/06/12 14:42:50;;;;;;;5.05;4.00;;;;;;;;;;5021936;28;20133;-79